createdAt,value
2023-04-18T00:00:17.484Z,88.4991
2023-04-18T00:01:18.111Z,88.6319
2023-04-18T00:02:19.067Z,88.5921
2023-04-18T00:03:19.312Z,88.0802
2023-04-18T00:04:21.362Z,88.3075
2023-04-18T00:05:22.206Z,88.7371
2023-04-18T00:06:23.030Z,88.5557
2023-04-18T00:07:23.928Z,88.5432
2023-04-18T00:08:24.270Z,88.4346
2023-04-18T00:09:25.142Z,88.2775
2023-04-18T00:10:25.793Z,88.4286
2023-04-18T00:11:26.466Z,87.6300
2023-04-18T00:12:27.043Z,87.8219
2023-04-18T00:13:27.632Z,87.6475
2023-04-18T00:14:27.666Z,88.5672
2023-04-18T00:15:28.487Z,88.5593
2023-04-18T00:16:29.165Z,88.3899
2023-04-18T00:17:30.044Z,88.8706
2023-04-18T00:18:30.556Z,88.2758
2023-04-18T00:19:31.077Z,88.1911
2023-04-18T00:20:31.643Z,87.4883
2023-04-18T00:21:32.175Z,87.9992
2023-04-18T00:22:32.802Z,87.4228
2023-04-18T00:23:33.779Z,87.0134
2023-04-18T00:24:34.800Z,87.7879
2023-04-18T00:25:35.404Z,87.7944
2023-04-18T00:26:36.041Z,88.0532
2023-04-18T00:27:36.436Z,88.3191
2023-04-18T00:28:37.133Z,88.1113
2023-04-18T00:29:37.516Z,88.3953
2023-04-18T00:30:38.121Z,87.8588
2023-04-18T00:31:39.318Z,86.3168
2023-04-18T00:32:39.911Z,87.0970
2023-04-18T00:33:40.637Z,87.5019
2023-04-18T00:34:41.214Z,87.6005
2023-04-18T00:35:41.699Z,87.5789
2023-04-18T00:36:42.260Z,86.9757
2023-04-18T00:37:42.753Z,87.2852
2023-04-18T00:38:43.298Z,87.6585
2023-04-18T00:39:43.814Z,87.6656
2023-04-18T00:40:44.198Z,87.0526
2023-04-18T00:41:44.807Z,87.4120
2023-04-18T00:42:45.378Z,86.9199
2023-04-18T00:43:45.794Z,87.2044
2023-04-18T00:44:46.828Z,87.0239
2023-04-18T00:45:47.215Z,87.6459
2023-04-18T00:46:48.415Z,87.8307
2023-04-18T00:47:49.289Z,87.6817
2023-04-18T00:48:49.996Z,87.6250
2023-04-18T00:49:50.881Z,87.1532
2023-04-18T00:50:51.549Z,87.6629
2023-04-18T00:51:52.029Z,87.9395
2023-04-18T00:52:52.636Z,87.9484
2023-04-18T00:53:53.106Z,87.9175
2023-04-18T00:54:54.227Z,87.7425
2023-04-18T00:55:54.856Z,87.5059
2023-04-18T00:56:55.330Z,87.6792
2023-04-18T00:57:55.883Z,87.9159
2023-04-18T00:58:56.453Z,87.4578
2023-04-18T00:59:56.843Z,87.0902
2023-04-18T01:00:57.435Z,87.2817
2023-04-18T01:01:58.110Z,87.4149
2023-04-18T01:02:58.362Z,87.5924
2023-04-18T01:03:58.449Z,87.7582
2023-04-18T01:04:59.164Z,87.8005
2023-04-18T01:05:59.850Z,87.9233
2023-04-18T01:07:00.416Z,87.3980
2023-04-18T01:08:00.987Z,87.6545
2023-04-18T01:09:01.727Z,87.7885
2023-04-18T01:10:02.471Z,87.1793
2023-04-18T01:11:02.850Z,86.4869
2023-04-18T01:12:03.424Z,86.7941
2023-04-18T01:13:03.849Z,87.5460
2023-04-18T01:14:04.354Z,87.7911
2023-04-18T01:15:04.885Z,88.5100
2023-04-18T01:16:05.503Z,87.2979
2023-04-18T01:17:06.685Z,87.1640
2023-04-18T01:18:07.452Z,87.3359
2023-04-18T01:19:07.907Z,88.2156
2023-04-18T01:20:08.566Z,87.7324
2023-04-18T01:21:09.306Z,88.1560
2023-04-18T01:22:09.901Z,87.5531
2023-04-18T01:23:10.461Z,87.4961
2023-04-18T01:24:11.154Z,87.9513
2023-04-18T01:25:11.537Z,87.5217
2023-04-18T01:26:12.217Z,87.6565
2023-04-18T01:27:12.798Z,87.4012
2023-04-18T01:28:13.393Z,87.2361
2023-04-18T01:29:13.762Z,87.7919
2023-04-18T01:30:14.823Z,87.8266
2023-04-18T01:31:15.498Z,87.6956
2023-04-18T01:32:16.102Z,87.6911
2023-04-18T01:33:17.039Z,87.3559
2023-04-18T01:34:17.785Z,87.5676
2023-04-18T01:35:18.297Z,87.9979
2023-04-18T01:36:18.853Z,88.1922
2023-04-18T01:37:19.263Z,87.6591
2023-04-18T01:38:19.751Z,87.6229
2023-04-18T01:39:20.452Z,87.4785
2023-04-18T01:40:20.876Z,87.4519
2023-04-18T01:41:21.477Z,87.6038
2023-04-18T01:42:22.411Z,87.8786
2023-04-18T01:43:22.849Z,87.5578
2023-04-18T01:44:23.448Z,87.6517
2023-04-18T01:45:23.894Z,87.7485
2023-04-18T01:46:24.678Z,86.7435
2023-04-18T01:47:25.704Z,86.8944
2023-04-18T01:48:26.235Z,87.2305
2023-04-18T01:49:26.869Z,87.3697
2023-04-18T01:50:27.439Z,87.2509
2023-04-18T01:51:27.864Z,87.4682
2023-04-18T01:52:28.612Z,87.6962
2023-04-18T01:53:28.941Z,88.3537
2023-04-18T01:54:29.963Z,88.3318
2023-04-18T01:55:30.510Z,88.6166
2023-04-18T01:56:30.941Z,88.5820
2023-04-18T01:57:31.684Z,88.1974
2023-04-18T01:58:32.328Z,87.8319
2023-04-18T01:59:32.645Z,87.3022
2023-04-18T02:00:33.259Z,88.3936
2023-04-18T02:01:33.913Z,87.3048
2023-04-18T02:02:35.033Z,87.4323
2023-04-18T02:03:35.583Z,87.8732
2023-04-18T02:04:35.452Z,87.9797
2023-04-18T02:05:36.002Z,88.2021
2023-04-18T02:06:36.559Z,88.1895
2023-04-18T02:07:37.117Z,88.3910
2023-04-18T02:08:37.766Z,88.6478
2023-04-18T02:09:38.195Z,88.5121
2023-04-18T02:10:38.698Z,88.8070
2023-04-18T02:11:39.333Z,88.6351
2023-04-18T02:12:39.748Z,88.5332
2023-04-18T02:13:40.315Z,88.5227
2023-04-18T02:14:40.862Z,88.2808
2023-04-18T02:15:41.204Z,88.6116
2023-04-18T02:16:42.132Z,88.5921
2023-04-18T02:17:42.829Z,88.5854
2023-04-18T02:18:43.539Z,88.2025
2023-04-18T02:19:44.177Z,88.5817
2023-04-18T02:20:44.785Z,88.1500
2023-04-18T02:21:45.335Z,88.4160
2023-04-18T02:22:45.904Z,88.6486
2023-04-18T02:23:46.409Z,88.3707
2023-04-18T02:24:47.230Z,88.5655
2023-04-18T02:25:47.730Z,88.5002
2023-04-18T02:26:48.484Z,88.4961
2023-04-18T02:27:49.214Z,88.5243
2023-04-18T02:28:49.989Z,88.8444
2023-04-18T02:29:50.637Z,88.7692
2023-04-18T02:30:51.590Z,88.5117
2023-04-18T02:31:52.278Z,87.9516
2023-04-18T02:32:53.465Z,88.5961
2023-04-18T02:33:53.957Z,88.9921
2023-04-18T02:34:54.756Z,88.9112
2023-04-18T02:35:55.358Z,88.6649
2023-04-18T02:36:55.815Z,88.5179
2023-04-18T02:37:56.433Z,88.7851
2023-04-18T02:38:56.981Z,88.3835
2023-04-18T02:39:57.377Z,88.1609
2023-04-18T02:40:58.040Z,88.1189
2023-04-18T02:41:58.415Z,88.3577
2023-04-18T02:42:58.990Z,88.6378
2023-04-18T02:43:59.633Z,89.0770
2023-04-18T02:45:00.117Z,88.7318
2023-04-18T02:46:00.873Z,88.8040
2023-04-18T02:47:01.689Z,88.8719
2023-04-18T02:48:02.679Z,89.3125
2023-04-18T02:49:03.556Z,88.8492
2023-04-18T02:50:04.155Z,88.8026
2023-04-18T02:51:04.679Z,88.4916
2023-04-18T02:52:05.301Z,88.7549
2023-04-18T02:53:05.736Z,89.3761
2023-04-18T02:54:06.288Z,89.5370
2023-04-18T02:55:06.897Z,89.3927
2023-04-18T02:56:07.414Z,89.1803
2023-04-18T02:57:08.134Z,88.9097
2023-04-18T02:58:08.744Z,88.7881
2023-04-18T02:59:09.283Z,88.2705
2023-04-18T03:00:09.883Z,88.4625
2023-04-18T03:01:10.381Z,88.6840
2023-04-18T03:02:11.336Z,88.6521
2023-04-18T03:03:11.368Z,88.7535
2023-04-18T03:04:12.325Z,88.5412
2023-04-18T03:05:12.705Z,88.6584
2023-04-18T03:06:13.388Z,88.6994
2023-04-18T03:07:13.766Z,88.5214
2023-04-18T03:08:14.560Z,88.9084
2023-04-18T03:09:14.939Z,88.9025
2023-04-18T03:10:15.542Z,89.1094
2023-04-18T03:11:16.087Z,88.8852
2023-04-18T03:12:16.522Z,88.8995
2023-04-18T03:13:17.108Z,89.2224
2023-04-18T03:14:17.736Z,88.9171
2023-04-18T03:15:18.122Z,88.5585
2023-04-18T03:16:18.986Z,88.4684
2023-04-18T03:17:19.744Z,88.9974
2023-04-18T03:18:20.321Z,89.0306
2023-04-18T03:19:21.059Z,88.7759
2023-04-18T03:20:21.547Z,88.6764
2023-04-18T03:21:22.144Z,88.7472
2023-04-18T03:22:22.813Z,88.8426
2023-04-18T03:23:23.314Z,88.5482
2023-04-18T03:24:23.819Z,88.5658
2023-04-18T03:25:24.183Z,88.5511
2023-04-18T03:26:24.710Z,88.8570
2023-04-18T03:27:25.258Z,89.1918
2023-04-18T03:28:25.776Z,89.1291
2023-04-18T03:29:26.409Z,88.8217
2023-04-18T03:30:27.074Z,88.9184
2023-04-18T03:31:27.767Z,89.0488
2023-04-18T03:32:28.658Z,89.0838
2023-04-18T03:33:29.309Z,88.7178
2023-04-18T03:34:29.751Z,88.8412
2023-04-18T03:35:30.430Z,88.4228
2023-04-18T03:36:30.987Z,88.6096
2023-04-18T03:37:31.523Z,88.6486
2023-04-18T03:38:32.107Z,88.6652
2023-04-18T03:39:32.545Z,89.0467
2023-04-18T03:40:33.141Z,89.2594
2023-04-18T03:41:33.682Z,89.4483
2023-04-18T03:42:34.336Z,89.3191
2023-04-18T03:43:34.991Z,88.9470
2023-04-18T03:44:36.245Z,88.9674
2023-04-18T03:45:36.825Z,89.2697
2023-04-18T03:46:38.085Z,89.5003
2023-04-18T03:47:38.997Z,89.1561
2023-04-18T03:48:40.396Z,88.4174
2023-04-18T03:50:40.259Z,89.2432
2023-04-18T03:51:40.971Z,89.3005
2023-04-18T03:52:41.371Z,88.6801
2023-04-18T03:53:41.734Z,88.6899
2023-04-18T03:54:42.886Z,88.9719
2023-04-18T03:55:43.294Z,89.2626
2023-04-18T03:56:43.978Z,89.0123
2023-04-18T03:57:44.478Z,88.7929
2023-04-18T03:58:44.906Z,88.8233
2023-04-18T03:59:47.321Z,89.2085
2023-04-18T04:00:45.772Z,88.9475
2023-04-18T04:01:46.290Z,89.0196
2023-04-18T04:02:46.812Z,89.4264
2023-04-18T04:03:47.443Z,89.1253
2023-04-18T04:04:47.505Z,88.8023
2023-04-18T04:05:48.245Z,88.9198
2023-04-18T04:06:48.945Z,88.9051
2023-04-18T04:07:49.589Z,88.6601
2023-04-18T04:08:50.145Z,88.9247
2023-04-18T04:09:50.761Z,88.5118
2023-04-18T04:10:51.184Z,88.2991
2023-04-18T04:11:51.674Z,88.7740
2023-04-18T04:12:52.282Z,88.4921
2023-04-18T04:13:52.720Z,88.4559
2023-04-18T04:14:53.930Z,88.6664
2023-04-18T04:15:54.487Z,88.9116
2023-04-18T04:16:55.307Z,88.5965
2023-04-18T04:17:56.187Z,88.8999
2023-04-18T04:18:56.949Z,88.2705
2023-04-18T04:19:57.359Z,88.6894
2023-04-18T04:20:57.939Z,88.9925
2023-04-18T04:21:58.346Z,89.0306
2023-04-18T04:22:58.948Z,89.0323
2023-04-18T04:23:59.588Z,89.2752
2023-04-18T04:25:00.304Z,89.3291
2023-04-18T04:26:00.912Z,89.2095
2023-04-18T04:27:01.557Z,89.2900
2023-04-18T04:28:02.532Z,89.1883
2023-04-18T04:29:03.201Z,89.5062
2023-04-18T04:30:03.931Z,88.7148
2023-04-18T04:31:05.025Z,89.3079
2023-04-18T04:32:05.159Z,88.8875
2023-04-18T04:33:06.129Z,89.0515
2023-04-18T04:36:07.374Z,89.1293
2023-04-18T04:37:08.144Z,89.1720
2023-04-18T04:38:08.718Z,88.9512
2023-04-18T04:39:09.454Z,89.1814
2023-04-18T04:40:10.669Z,88.9320
2023-04-18T04:41:11.593Z,89.1410
2023-04-18T04:42:12.804Z,89.2971
2023-04-18T04:43:13.888Z,89.0220
2023-04-18T04:44:14.851Z,89.2211
2023-04-18T04:45:15.429Z,89.2583
2023-04-18T04:46:16.210Z,89.6095
2023-04-18T04:47:16.801Z,88.7820
2023-04-18T04:48:17.034Z,88.6175
2023-04-18T04:49:17.935Z,88.6400
2023-04-18T04:50:18.869Z,88.9083
2023-04-18T04:51:19.674Z,89.1080
2023-04-18T04:52:20.373Z,89.2895
2023-04-18T04:53:21.000Z,89.3339
2023-04-18T04:54:21.519Z,89.1239
2023-04-18T04:55:21.985Z,89.1101
2023-04-18T04:56:22.932Z,88.7548
2023-04-18T04:57:23.615Z,88.4461
2023-04-18T04:58:24.155Z,88.3901
2023-04-18T04:59:24.792Z,88.5782
2023-04-18T05:00:25.606Z,88.7607
2023-04-18T05:01:26.423Z,89.0389
2023-04-18T05:02:26.857Z,88.8941
2023-04-18T05:03:28.747Z,88.7370
2023-04-18T05:04:29.097Z,88.4844
2023-04-18T05:05:30.202Z,88.6686
2023-04-18T05:06:30.846Z,88.6404
2023-04-18T05:07:31.836Z,88.6161
2023-04-18T05:08:32.683Z,89.2388
2023-04-18T05:09:33.267Z,89.5687
2023-04-18T05:10:33.901Z,89.4697
2023-04-18T05:11:34.585Z,89.2108
2023-04-18T05:12:35.184Z,89.1291
2023-04-18T05:13:36.160Z,89.1026
2023-04-18T05:14:36.553Z,89.2315
2023-04-18T05:15:37.463Z,89.2781
2023-04-18T05:16:37.709Z,89.4273
2023-04-18T05:17:38.745Z,89.4423
2023-04-18T05:18:39.478Z,89.1665
2023-04-18T05:19:40.340Z,89.4090
2023-04-18T05:20:41.013Z,89.2692
2023-04-18T05:21:41.731Z,89.2021
2023-04-18T05:22:43.033Z,89.3154
2023-04-18T05:23:42.859Z,89.0864
2023-04-18T05:24:43.056Z,89.3167
2023-04-18T05:25:43.713Z,89.0853
2023-04-18T05:26:44.697Z,89.2236
2023-04-18T05:27:45.946Z,89.2875
2023-04-18T05:28:46.802Z,89.2031
2023-04-18T05:29:47.579Z,89.2122
2023-04-18T05:30:48.912Z,89.1782
2023-04-18T05:31:49.906Z,88.9924
2023-04-18T05:32:50.312Z,88.6662
2023-04-18T05:33:50.334Z,88.6786
2023-04-18T05:34:51.460Z,88.9521
2023-04-18T05:35:53.496Z,88.9871
2023-04-18T05:36:53.668Z,88.8989
2023-04-18T05:37:54.476Z,88.9943
2023-04-18T05:38:55.371Z,88.9613
2023-04-18T05:39:55.938Z,88.4503
2023-04-18T05:40:56.290Z,88.5212
2023-04-18T05:41:56.724Z,88.4742
2023-04-18T05:42:57.911Z,88.6372
2023-04-18T05:44:05.261Z,88.7800
2023-04-18T05:45:02.438Z,88.6767
2023-04-18T05:48:04.054Z,88.8605
2023-04-18T05:49:04.813Z,89.1658
2023-04-18T05:50:05.567Z,89.2935
2023-04-18T05:51:06.487Z,88.8448
2023-04-18T05:52:07.678Z,88.3611
2023-04-18T05:53:08.531Z,88.7988
2023-04-18T05:54:09.151Z,88.8175
2023-04-18T05:55:09.147Z,88.5228
2023-04-18T05:56:09.647Z,88.7612
2023-04-18T05:57:10.696Z,88.7686
2023-04-18T05:58:11.356Z,88.6907
2023-04-18T05:59:11.957Z,88.4043
2023-04-18T06:00:12.666Z,88.3261
2023-04-18T06:01:13.889Z,88.7344
2023-04-18T06:02:14.722Z,88.4566
2023-04-18T06:03:16.047Z,88.4316
2023-04-18T06:04:16.809Z,88.4495
2023-04-18T06:05:17.253Z,87.9704
2023-04-18T06:06:17.934Z,87.7364
2023-04-18T06:07:18.386Z,87.7808
2023-04-18T06:08:19.212Z,87.9523
2023-04-18T06:09:19.852Z,88.3374
2023-04-18T06:10:20.556Z,88.3047
2023-04-18T06:11:21.403Z,88.2047
2023-04-18T06:12:22.324Z,88.4932
2023-04-18T06:13:22.993Z,88.1906
2023-04-18T06:14:23.828Z,88.3943
2023-04-18T06:15:25.050Z,88.3227
2023-04-18T06:16:25.974Z,88.0725
2023-04-18T06:17:25.972Z,87.9467
2023-04-18T06:18:26.915Z,88.1395
2023-04-18T06:19:27.100Z,87.9169
2023-04-18T06:20:28.323Z,87.8211
2023-04-18T06:21:28.897Z,88.5310
2023-04-18T06:22:29.982Z,88.1097
2023-04-18T06:23:30.609Z,88.3236
2023-04-18T06:24:31.357Z,88.3400
2023-04-18T06:25:31.005Z,88.4401
2023-04-18T06:26:31.502Z,87.7287
2023-04-18T06:27:34.535Z,87.2051
2023-04-18T06:28:35.388Z,87.4719
2023-04-18T06:29:36.855Z,87.5614
2023-04-18T06:30:36.220Z,87.6667
2023-04-18T06:31:37.082Z,87.8300
2023-04-18T06:32:37.932Z,87.7407
2023-04-18T06:33:38.618Z,87.3995
2023-04-18T06:34:39.866Z,88.0050
2023-04-18T06:35:40.505Z,87.8229
2023-04-18T06:36:41.153Z,87.5025
2023-04-18T06:37:41.389Z,87.9485
2023-04-18T06:38:42.077Z,87.5584
2023-04-18T06:39:42.772Z,87.8058
2023-04-18T06:40:43.518Z,87.7769
2023-04-18T06:41:44.265Z,86.9557
2023-04-18T06:42:44.756Z,87.0110
2023-04-18T06:44:01.572Z,86.8861
2023-04-18T06:44:46.870Z,86.6094
2023-04-18T06:45:47.602Z,87.1486
2023-04-18T06:46:47.677Z,87.6361
2023-04-18T06:47:48.725Z,87.4689
2023-04-18T06:48:50.434Z,88.0716
2023-04-18T06:49:49.849Z,87.4077
2023-04-18T06:50:50.594Z,87.0809
2023-04-18T06:51:51.220Z,86.9680
2023-04-18T06:52:51.798Z,87.1402
2023-04-18T06:53:52.578Z,86.8768
2023-04-18T06:54:53.379Z,86.7176
2023-04-18T06:55:54.132Z,87.1956
2023-04-18T06:56:55.303Z,87.0482
2023-04-18T06:57:56.516Z,87.2130
2023-04-18T06:58:57.321Z,86.8408
2023-04-18T06:59:58.553Z,86.9842
2023-04-18T07:00:59.191Z,86.8020
2023-04-18T07:02:00.129Z,86.7324
2023-04-18T07:03:00.733Z,86.8342
2023-04-18T07:04:00.928Z,87.0045
2023-04-18T07:05:01.336Z,86.9284
2023-04-18T07:06:01.887Z,86.8899
2023-04-18T07:07:02.691Z,87.2520
2023-04-18T07:08:03.351Z,87.1162
2023-04-18T07:09:04.107Z,87.0108
2023-04-18T07:10:04.679Z,87.5108
2023-04-18T07:11:04.699Z,86.8644
2023-04-18T07:12:05.200Z,87.1676
2023-04-18T07:13:05.751Z,86.9919
2023-04-18T07:14:06.656Z,86.5870
2023-04-18T07:15:07.717Z,86.5137
2023-04-18T07:16:08.377Z,86.4138
2023-04-18T07:17:09.054Z,86.4481
2023-04-18T07:18:10.036Z,86.2151
2023-04-18T07:19:10.939Z,86.0151
2023-04-18T07:20:12.987Z,86.0213
2023-04-18T07:21:12.436Z,85.8618
2023-04-18T07:22:13.100Z,85.6917
2023-04-18T07:23:13.597Z,85.8968
2023-04-18T07:24:14.509Z,86.0731
2023-04-18T07:25:15.385Z,85.7665
2023-04-18T07:26:15.619Z,85.4187
2023-04-18T07:27:16.353Z,85.7883
2023-04-18T07:28:17.208Z,86.0286
2023-04-18T07:29:17.675Z,85.7597
2023-04-18T07:30:18.470Z,85.2916
2023-04-18T07:31:19.331Z,84.9362
2023-04-18T07:32:20.080Z,85.3780
2023-04-18T07:33:20.895Z,85.3641
2023-04-18T07:34:21.497Z,85.6473
2023-04-18T07:35:22.119Z,85.0719
2023-04-18T07:36:22.889Z,85.5768
2023-04-18T07:37:23.549Z,84.9875
2023-04-18T07:38:24.191Z,84.7688
2023-04-18T07:39:24.818Z,84.7125
2023-04-18T07:40:25.305Z,84.8447
2023-04-18T07:41:26.032Z,85.0577
2023-04-18T07:42:26.551Z,85.0938
2023-04-18T07:43:26.689Z,84.8440
2023-04-18T07:44:26.864Z,84.9530
2023-04-18T07:45:27.257Z,85.0301
2023-04-18T07:46:27.606Z,85.0724
2023-04-18T07:47:32.242Z,85.0205
2023-04-18T07:48:31.432Z,84.6486
2023-04-18T07:49:32.530Z,84.9000
2023-04-18T07:50:33.251Z,84.9686
2023-04-18T07:51:33.673Z,84.6759
2023-04-18T07:52:34.628Z,84.5403
2023-04-18T07:53:35.275Z,84.6081
2023-04-18T07:54:35.728Z,84.3493
2023-04-18T07:55:36.322Z,84.0601
2023-04-18T07:56:36.785Z,83.9772
2023-04-18T07:57:37.478Z,83.9622
2023-04-18T07:58:38.148Z,84.2208
2023-04-18T07:59:39.316Z,83.6898
2023-04-18T08:00:39.377Z,83.7746
2023-04-18T08:01:39.996Z,83.4751
2023-04-18T08:02:41.328Z,83.1883
2023-04-18T08:03:41.267Z,82.3736
2023-04-18T08:04:41.884Z,82.5083
2023-04-18T08:05:43.021Z,82.5800
2023-04-18T08:06:43.849Z,82.1414
2023-04-18T08:07:44.798Z,82.0511
2023-04-18T08:08:45.609Z,81.8910
2023-04-18T08:09:46.771Z,81.8869
2023-04-18T08:10:47.185Z,82.0867
2023-04-18T08:11:47.874Z,81.1909
2023-04-18T08:12:48.606Z,80.9405
2023-04-18T08:13:49.318Z,81.3147
2023-04-18T08:14:50.235Z,80.7221
2023-04-18T08:15:50.966Z,81.1143
2023-04-18T08:16:51.804Z,80.9806
2023-04-18T08:17:52.388Z,80.5508
2023-04-18T08:18:53.093Z,80.9620
2023-04-18T08:19:53.703Z,80.4572
2023-04-18T08:20:54.198Z,80.3557
2023-04-18T08:21:54.887Z,80.0748
2023-04-18T08:23:06.135Z,80.3326
2023-04-18T08:24:01.983Z,81.0611
2023-04-18T08:25:05.547Z,80.6027
2023-04-18T08:26:03.792Z,80.3093
2023-04-18T08:27:04.186Z,80.5986
2023-04-18T08:28:04.882Z,79.6375
2023-04-18T08:29:05.046Z,80.5024
2023-04-18T08:30:05.868Z,80.9565
2023-04-18T08:31:06.580Z,81.2843
2023-04-18T08:32:07.484Z,81.6941
2023-04-18T08:33:08.635Z,81.7804
2023-04-18T08:34:09.271Z,81.6785
2023-04-18T08:35:09.938Z,81.6729
2023-04-18T08:36:10.559Z,81.8494
2023-04-18T08:37:11.077Z,81.9675
2023-04-18T08:38:11.524Z,81.9588
2023-04-18T08:39:12.212Z,81.6863
2023-04-18T08:40:13.283Z,81.4677
2023-04-18T08:41:13.773Z,81.2143
2023-04-18T08:42:14.485Z,80.3887
2023-04-18T08:43:14.994Z,80.4042
2023-04-18T08:44:15.741Z,80.7402
2023-04-18T08:45:16.723Z,80.5327
2023-04-18T08:46:16.973Z,80.1125
2023-04-18T08:47:18.050Z,79.9692
2023-04-18T08:48:19.102Z,79.9577
2023-04-18T08:49:20.173Z,79.8414
2023-04-18T08:50:20.375Z,79.5615
2023-04-18T08:51:20.450Z,79.3108
2023-04-18T08:52:21.023Z,78.8986
2023-04-18T08:53:21.936Z,78.6730
2023-04-18T08:54:22.483Z,78.3880
2023-04-18T08:55:23.357Z,78.7892
2023-04-18T08:56:23.959Z,78.3704
2023-04-18T08:57:24.502Z,78.9729
2023-04-18T08:58:25.409Z,78.3160
2023-04-18T08:59:26.501Z,78.7389
2023-04-18T09:00:27.587Z,79.4771
2023-04-18T09:01:28.382Z,79.6037
2023-04-18T09:02:29.345Z,79.2419
2023-04-18T09:03:29.938Z,79.4859
2023-04-18T09:04:30.826Z,79.1338
2023-04-18T09:05:32.110Z,79.1552
2023-04-18T09:06:32.238Z,79.2874
2023-04-18T09:07:32.953Z,79.0940
2023-04-18T09:08:34.221Z,78.9002
2023-04-18T09:09:35.008Z,78.8967
2023-04-18T09:10:36.787Z,78.2486
2023-04-18T09:11:36.548Z,78.0023
2023-04-18T09:12:37.255Z,77.7535
2023-04-18T09:13:38.439Z,77.8554
2023-04-18T09:14:38.916Z,77.5810
2023-04-18T09:15:39.631Z,77.8479
2023-04-18T09:16:40.783Z,77.5488
2023-04-18T09:17:41.597Z,77.2114
2023-04-18T09:18:42.348Z,77.1916
2023-04-18T09:19:42.752Z,77.0238
2023-04-18T09:20:43.355Z,77.3379
2023-04-18T09:21:44.008Z,77.2117
2023-04-18T09:22:44.844Z,76.9220
2023-04-18T09:23:45.546Z,77.2361
2023-04-18T09:24:46.796Z,77.6706
2023-04-18T09:25:47.797Z,77.6610
2023-04-18T09:26:48.547Z,77.7396
2023-04-18T09:27:48.912Z,77.9210
2023-04-18T09:28:51.219Z,77.3602
2023-04-18T09:29:50.129Z,77.2376
2023-04-18T09:30:50.747Z,76.9503
2023-04-18T09:31:51.693Z,76.4136
2023-04-18T09:32:52.227Z,76.5529
2023-04-18T09:33:53.221Z,76.6108
2023-04-18T09:34:53.908Z,76.2241
2023-04-18T09:35:54.850Z,75.6282
2023-04-18T09:36:55.805Z,75.8794
2023-04-18T09:37:56.857Z,76.7137
2023-04-18T09:38:57.529Z,76.8895
2023-04-18T09:39:58.302Z,76.9756
2023-04-18T09:40:59.080Z,76.9689
2023-04-18T09:41:59.414Z,76.8831
2023-04-18T09:43:00.180Z,76.4609
2023-04-18T09:44:00.682Z,76.6451
2023-04-18T09:45:01.373Z,76.0756
2023-04-18T09:46:02.424Z,75.4918
2023-04-18T09:47:03.195Z,75.7936
2023-04-18T09:48:03.916Z,75.7361
2023-04-18T09:49:04.614Z,75.7166
2023-04-18T09:50:05.922Z,75.4015
2023-04-18T09:51:06.446Z,76.1805
2023-04-18T09:52:07.079Z,76.6934
2023-04-18T09:53:07.477Z,77.4688
2023-04-18T09:54:08.462Z,77.0082
2023-04-18T09:55:08.718Z,76.7625
2023-04-18T09:56:09.408Z,76.4246
2023-04-18T09:57:10.353Z,76.1477
2023-04-18T09:58:10.899Z,75.5871
2023-04-18T09:59:11.590Z,74.8928
2023-04-18T10:00:12.406Z,75.8099
2023-04-18T10:01:12.494Z,74.7602
2023-04-18T10:02:13.761Z,74.5373
2023-04-18T10:03:14.846Z,74.4718
2023-04-18T10:04:15.725Z,74.1403
2023-04-18T10:05:17.244Z,73.6135
2023-04-18T10:06:16.407Z,74.1894
2023-04-18T10:07:17.025Z,74.3358
2023-04-18T10:08:17.592Z,74.1712
2023-04-18T10:09:18.014Z,74.3816
2023-04-18T10:10:18.644Z,74.2062
2023-04-18T10:11:20.320Z,73.7290
2023-04-18T10:12:19.890Z,73.8445
2023-04-18T10:13:20.641Z,73.9548
2023-04-18T10:14:21.836Z,73.9059
2023-04-18T10:15:22.476Z,73.5299
2023-04-18T10:16:23.459Z,73.3442
2023-04-18T10:17:23.481Z,72.8098
2023-04-18T10:18:24.609Z,73.1993
2023-04-18T10:19:24.534Z,73.6447
2023-04-18T10:20:25.101Z,73.4908
2023-04-18T10:21:25.639Z,73.1970
2023-04-18T10:22:26.218Z,72.6544
2023-04-18T10:23:28.095Z,73.1061
2023-04-18T10:24:27.512Z,71.7944
2023-04-18T10:25:28.045Z,71.8381
2023-04-18T10:26:28.693Z,71.9394
2023-04-18T10:27:29.346Z,72.4779
2023-04-18T10:28:29.840Z,72.9282
2023-04-18T10:29:30.805Z,73.0704
2023-04-18T10:30:31.218Z,73.6696
2023-04-18T10:31:32.250Z,73.8449
2023-04-18T10:32:32.902Z,73.7773
2023-04-18T10:33:33.669Z,74.0819
2023-04-18T10:34:33.463Z,74.6767
2023-04-18T10:35:33.486Z,74.6368
2023-04-18T10:36:34.972Z,74.4271
2023-04-18T10:38:34.758Z,74.4239
2023-04-18T10:39:35.326Z,74.8674
2023-04-18T10:40:36.093Z,74.3189
2023-04-18T10:41:36.048Z,74.6387
2023-04-18T10:43:00.314Z,73.8148
2023-04-18T10:44:00.553Z,73.9967
2023-04-18T10:45:01.093Z,74.4549
2023-04-18T10:46:01.754Z,74.5129
2023-04-18T10:47:02.680Z,73.9774
2023-04-18T10:48:03.062Z,73.9497
2023-04-18T10:49:03.219Z,73.4212
2023-04-18T10:50:08.431Z,72.9281
2023-04-18T10:51:09.113Z,72.8881
2023-04-18T10:52:11.766Z,73.3875
2023-04-18T10:53:10.501Z,72.9096
2023-04-18T10:54:11.030Z,73.5112
2023-04-18T10:55:12.266Z,73.3306
2023-04-18T10:56:12.938Z,73.1762
2023-04-18T10:57:13.500Z,72.9945
2023-04-18T10:58:14.177Z,73.2209
2023-04-18T10:59:14.720Z,73.1731
2023-04-18T11:00:15.336Z,72.9773
2023-04-18T11:01:16.508Z,72.5269
2023-04-18T11:02:17.603Z,72.2625
2023-04-18T11:03:17.709Z,71.5197
2023-04-18T11:04:18.092Z,70.8252
2023-04-18T11:05:17.953Z,71.7779
2023-04-18T11:06:18.691Z,71.4007
2023-04-18T11:07:19.181Z,70.5840
2023-04-18T11:08:19.848Z,70.0378
2023-04-18T11:09:20.429Z,71.1539
2023-04-18T11:10:21.025Z,71.5950
2023-04-18T11:11:22.244Z,71.7286
2023-04-18T11:12:22.776Z,71.9033
2023-04-18T11:13:22.822Z,71.9646
2023-04-18T11:14:23.601Z,72.4375
2023-04-18T11:15:24.430Z,72.8110
2023-04-18T11:16:25.177Z,72.6265
2023-04-18T11:17:26.241Z,72.6133
2023-04-18T11:18:26.283Z,71.8649
2023-04-18T11:19:27.093Z,71.3558
2023-04-18T11:20:28.255Z,71.3355
2023-04-18T11:21:30.463Z,71.2047
2023-04-18T11:22:29.087Z,70.6513
2023-04-18T11:23:30.062Z,70.9028
2023-04-18T11:24:30.015Z,70.5348
2023-04-18T11:25:30.710Z,69.8354
2023-04-18T11:26:31.384Z,70.3260
2023-04-18T11:27:31.585Z,70.6075
2023-04-18T11:28:32.468Z,71.1591
2023-04-18T11:29:33.174Z,71.5171
2023-04-18T11:30:33.957Z,70.6774
2023-04-18T11:31:34.962Z,70.9139
2023-04-18T11:32:35.011Z,71.0259
2023-04-18T11:33:35.795Z,71.5068
2023-04-18T11:34:36.541Z,71.4402
2023-04-18T11:35:37.296Z,71.1672
2023-04-18T11:36:37.735Z,70.9091
2023-04-18T11:37:38.487Z,70.4467
2023-04-18T11:38:39.288Z,70.4427
2023-04-18T11:39:39.850Z,69.7414
2023-04-18T11:40:40.650Z,70.1994
2023-04-18T11:41:41.057Z,69.8077
2023-04-18T11:42:41.810Z,69.4759
2023-04-18T11:43:42.530Z,67.8900
2023-04-18T11:44:43.329Z,67.8427
2023-04-18T11:45:43.967Z,68.3450
2023-04-18T11:46:45.035Z,67.5964
2023-04-18T11:47:45.606Z,67.1504
2023-04-18T11:48:46.248Z,66.9336
2023-04-18T11:49:47.362Z,64.2278
2023-04-18T11:50:48.629Z,64.6972
2023-04-18T11:51:49.880Z,64.8680
2023-04-18T11:52:51.139Z,64.0894
2023-04-18T11:53:52.225Z,64.5750
2023-04-18T11:54:52.823Z,64.2086
2023-04-18T11:55:53.394Z,64.8139
2023-04-18T11:56:54.297Z,63.4095
2023-04-18T11:57:55.005Z,64.0329
2023-04-18T11:58:56.171Z,63.1104
2023-04-18T11:59:57.043Z,62.1743
2023-04-18T12:00:57.256Z,65.4044
2023-04-18T12:01:58.904Z,66.0070
2023-04-18T12:02:58.426Z,66.1039
2023-04-18T12:05:59.406Z,63.6948
2023-04-18T12:06:59.531Z,63.2495
2023-04-18T12:08:00.502Z,62.1819
2023-04-18T12:09:00.940Z,61.9280
2023-04-18T12:10:01.838Z,61.1620
2023-04-18T12:11:02.902Z,57.3207
2023-04-18T12:12:03.693Z,58.6905
2023-04-18T12:13:04.633Z,60.1855
2023-04-18T12:14:05.882Z,60.1852
2023-04-18T12:15:06.410Z,60.6148
2023-04-18T12:16:06.210Z,61.2095
2023-04-18T12:17:06.987Z,61.7399
2023-04-18T12:18:07.100Z,61.8988
2023-04-18T12:19:07.902Z,61.9089
2023-04-18T12:20:09.051Z,62.4968
2023-04-18T12:21:09.542Z,62.0757
2023-04-18T12:22:09.692Z,62.6602